Time;durP1;ratioP1;P1;durP2;ratioP2;P2;SDS_P1;SDS_P2;PMS_P1;PMS_P2;Temp;Humidity;BMP_temperature;BMP_pressure;BME280_temperature;BME280_humidity;BME280_pressure;Samples;Min_cycle;Max_cycle;Signal;HPM_P1;HPM_P2
2022/01/20 00:03:30;;;;;;;13.43;2.30;;;4.30;99.90;;;;;;5114963;28;20192;-60
2022/01/20 00:27:26;;;;;;;18.90;2.50;;;4.50;99.90;;;;;;5115098;28;20040;-59
2022/01/20 00:37:14;;;;;;;13.18;2.20;;;4.50;99.90;;;;;;5031166;28;20499;-60
2022/01/20 00:38:17;;;;;;;15.20;2.78;;;4.50;99.90;;;;;;5031998;28;20103;-60
2022/01/20 00:40:43;;;;;;;16.48;2.95;;;4.50;99.90;;;;;;5031623;28;20403;-60
2022/01/20 00:43:09;;;;;;;15.32;2.05;;;4.40;99.90;;;;;;5031719;28;20060;-60
2022/01/20 00:45:34;;;;;;;19.13;2.25;;;4.40;99.90;;;;;;5031807;28;20045;-60
2022/01/20 00:48:00;;;;;;;15.32;3.08;;;4.40;99.90;;;;;;5031871;28;20083;-60
2022/01/20 00:50:26;;;;;;;15.55;1.77;;;4.40;99.90;;;;;;5031635;28;20514;-60
2022/01/20 00:52:52;;;;;;;19.92;2.47;;;4.40;99.90;;;;;;5031711;28;20049;-59
2022/01/20 00:55:18;;;;;;;11.65;1.90;;;4.40;99.90;;;;;;5031294;28;20502;-59
2022/01/20 00:57:44;;;;;;;14.55;3.33;;;4.30;99.90;;;;;;5031692;28;20046;-60
2022/01/20 01:00:13;;;;;;;14.63;2.40;;;4.40;99.90;;;;;;5031446;28;20057;-60
2022/01/20 01:02:39;;;;;;;17.70;2.40;;;4.40;99.90;;;;;;5031589;28;20128;-60
2022/01/20 01:05:08;;;;;;;22.73;2.17;;;4.40;99.90;;;;;;5031231;28;20124;-59
2022/01/20 01:10:08;;;;;;;8.80;1.40;;;4.60;99.90;;;;;;5097483;28;20153;-59
2022/01/20 01:12:45;;;;;;;7.57;1.27;;;4.50;99.90;;;;;;5113653;28;20035;-59
2022/01/20 01:15:18;;;;;;;11.38;2.10;;;4.30;99.90;;;;;;5114212;28;20042;-59
2022/01/20 01:20:30;;;;;;;7.65;1.30;;;4.20;99.90;;;;;;5113933;28;20043;-61
2022/01/20 01:22:56;;;;;;;5.00;0.82;;;4.20;99.90;;;;;;5113405;28;20137;-60
2022/01/20 01:25:22;;;;;;;7.72;1.38;;;4.10;99.90;;;;;;5113728;28;20501;-60
2022/01/20 01:27:48;;;;;;;11.98;1.42;;;4.30;99.90;;;;;;5113433;28;20044;-60
2022/01/20 01:32:59;;;;;;;10.80;1.30;;;4.20;99.90;;;;;;5113767;28;20039;-60
2022/01/20 01:35:26;;;;;;;9.20;1.30;;;4.20;99.90;;;;;;5113629;28;20172;-60
2022/01/20 01:40:25;;;;;;;6.15;1.20;;;4.20;99.90;;;;;;5113797;28;20051;-59
2022/01/20 01:42:52;;;;;;;5.07;0.93;;;4.20;99.90;;;;;;5114000;28;20046;-61
2022/01/20 01:45:37;;;;;;;11.80;1.70;;;4.20;99.90;;;;;;5113798;28;20032;-60
2022/01/20 01:48:04;;;;;;;8.68;1.75;;;4.20;99.90;;;;;;5112646;28;20585;-60
2022/01/20 01:50:30;;;;;;;17.35;2.78;;;4.10;99.90;;;;;;5094678;28;20172;-61
2022/01/20 01:52:57;;;;;;;13.63;1.92;;;4.20;99.90;;;;;;5095654;28;20107;-60
2022/01/20 01:55:24;;;;;;;8.23;1.67;;;4.20;99.90;;;;;;5113527;28;20058;-60
2022/01/20 01:57:50;;;;;;;16.52;1.92;;;4.20;99.90;;;;;;5113399;28;20035;-60
2022/01/20 02:00:17;;;;;;;13.02;2.47;;;4.20;99.90;;;;;;5113531;28;20031;-59
2022/01/20 02:02:43;;;;;;;13.63;1.95;;;4.30;99.90;;;;;;5112997;28;20393;-61
2022/01/20 02:05:13;;;;;;;13.20;2.38;;;4.30;99.90;;;;;;5112731;28;20039;-61
2022/01/20 02:21:01;;;;;;;10.00;1.98;;;4.30;99.90;;;;;;5112507;28;20051;-60
2022/01/20 02:23:27;;;;;;;15.93;2.20;;;4.10;99.90;;;;;;5112717;28;20043;-61
2022/01/20 02:25:53;;;;;;;14.15;2.17;;;3.90;99.90;;;;;;5112736;28;20044;-61
2022/01/20 02:28:19;;;;;;;15.40;2.72;;;3.90;99.90;;;;;;5112956;28;20047;-60
2022/01/20 02:30:45;;;;;;;12.60;2.45;;;3.80;99.90;;;;;;5113246;28;20039;-60
2022/01/20 02:33:14;;;;;;;13.73;2.28;;;3.70;99.90;;;;;;5112677;28;20051;-60
2022/01/20 02:36:06;;;;;;;15.90;2.25;;;3.70;99.90;;;;;;5094852;28;20035;-60
2022/01/20 02:38:38;;;;;;;17.95;3.13;;;3.80;99.90;;;;;;5009995;28;20046;-60
2022/01/20 02:46:35;;;;;;;21.27;3.28;;;3.80;99.90;;;;;;5010321;28;20042;-61
2022/01/20 02:49:01;;;;;;;22.65;3.38;;;3.80;99.90;;;;;;5010066;28;20058;-60
2022/01/20 02:51:27;;;;;;;25.08;3.30;;;3.90;99.90;;;;;;5010150;28;20042;-60
2022/01/20 02:53:52;;;;;;;15.68;3.33;;;3.90;99.90;;;;;;5010211;28;20038;-61
2022/01/20 02:56:19;;;;;;;25.95;3.75;;;4.00;99.90;;;;;;5010261;28;20057;-60
2022/01/20 02:58:45;;;;;;;25.48;4.40;;;4.00;99.90;;;;;;5012651;28;20134;-60
2022/01/20 03:01:10;;;;;;;22.95;4.85;;;4.00;99.90;;;;;;5013771;28;20042;-61
2022/01/20 03:03:36;;;;;;;20.35;3.70;;;4.10;99.90;;;;;;5014228;28;20081;-60
2022/01/20 03:06:04;;;;;;;23.10;3.25;;;4.10;99.90;;;;;;5014374;28;20045;-60
2022/01/20 03:08:30;;;;;;;19.95;3.53;;;4.20;99.90;;;;;;5014033;28;20669;-60
2022/01/20 03:10:56;;;;;;;22.52;3.95;;;4.10;99.90;;;;;;5014141;28;20081;-60
2022/01/20 03:13:22;;;;;;;20.83;2.85;;;4.10;99.90;;;;;;5014000;28;20170;-60
2022/01/20 03:15:48;;;;;;;17.60;3.72;;;4.10;99.90;;;;;;5078283;28;20043;-60
2022/01/20 03:18:13;;;;;;;20.08;3.50;;;4.10;99.90;;;;;;5116686;28;20063;-61
2022/01/20 03:20:39;;;;;;;20.83;3.40;;;4.10;99.90;;;;;;5116513;28;20461;-60
2022/01/20 03:23:05;;;;;;;23.17;3.75;;;4.10;99.90;;;;;;5116525;28;20066;-61
2022/01/20 03:25:31;;;;;;;22.15;4.45;;;4.00;99.90;;;;;;5116095;28;20078;-61
2022/01/20 03:27:57;;;;;;;24.45;3.88;;;4.00;99.90;;;;;;5097907;28;20043;-60
2022/01/20 03:30:24;;;;;;;24.17;4.32;;;4.00;99.90;;;;;;5116415;28;20040;-60
2022/01/20 03:32:50;;;;;;;27.10;4.28;;;3.90;99.90;;;;;;5116325;28;20092;-60
2022/01/20 03:35:16;;;;;;;24.55;3.78;;;3.90;99.90;;;;;;5116040;28;20035;-60
2022/01/20 03:37:42;;;;;;;17.67;2.83;;;3.90;99.90;;;;;;5116173;28;20439;-61
2022/01/20 03:40:08;;;;;;;14.90;2.92;;;4.00;99.90;;;;;;5116222;28;20044;-60
2022/01/20 03:42:35;;;;;;;17.15;2.60;;;4.00;99.90;;;;;;5097724;28;20057;-60
2022/01/20 03:45:01;;;;;;;13.18;2.55;;;4.10;99.90;;;;;;5115886;28;20519;-61
2022/01/20 03:47:27;;;;;;;12.35;1.95;;;4.00;99.90;;;;;;5115646;28;20040;-60
2022/01/20 03:52:26;;;;;;;16.45;3.42;;;4.00;99.90;;;;;;5115905;28;20067;-60
2022/01/20 03:54:52;;;;;;;17.23;2.97;;;3.90;99.90;;;;;;5115670;28;20126;-60
2022/01/20 03:57:18;;;;;;;14.68;2.97;;;3.90;99.90;;;;;;5115518;28;20078;-60
2022/01/20 03:59:45;;;;;;;13.27;3.13;;;3.90;99.90;;;;;;5116146;28;20043;-60
2022/01/20 04:02:10;;;;;;;15.25;2.60;;;3.90;99.90;;;;;;5115601;28;20118;-60
2022/01/20 04:04:36;;;;;;;15.63;2.53;;;3.80;99.90;;;;;;5097435;28;20114;-61
2022/01/20 04:07:03;;;;;;;12.85;2.25;;;3.70;99.90;;;;;;5115402;28;20104;-60
2022/01/20 04:09:28;;;;;;;11.18;2.10;;;3.60;99.90;;;;;;5114870;28;20039;-60
2022/01/20 04:11:54;;;;;;;11.73;2.72;;;3.60;99.90;;;;;;5115648;28;20397;-60
2022/01/20 04:14:23;;;;;;;14.13;2.40;;;3.60;99.90;;;;;;5115694;28;20043;-60
2022/01/20 04:17:00;;;;;;;11.05;2.08;;;3.60;99.90;;;;;;5115334;28;20476;-60
2022/01/20 04:19:30;;;;;;;13.93;2.75;;;3.50;99.90;;;;;;5115649;28;20161;-60
2022/01/20 04:21:57;;;;;;;16.65;2.60;;;3.60;99.90;;;;;;5115185;28;20060;-60
2022/01/20 04:24:22;;;;;;;12.93;1.60;;;3.60;99.90;;;;;;5115270;28;20425;-60
2022/01/20 04:26:49;;;;;;;11.63;2.20;;;3.60;99.90;;;;;;5115319;28;20043;-60
2022/01/20 04:29:16;;;;;;;13.25;2.42;;;3.60;99.90;;;;;;5115323;28;20169;-60
2022/01/20 04:31:42;;;;;;;10.68;2.15;;;3.70;99.90;;;;;;5115031;28;20505;-60
2022/01/20 04:34:09;;;;;;;16.50;2.40;;;3.80;99.90;;;;;;5115070;28;20082;-60
2022/01/20 04:36:39;;;;;;;18.02;2.95;;;3.70;99.90;;;;;;5114871;28;20484;-60
2022/01/20 04:39:10;;;;;;;14.93;2.15;;;3.80;99.90;;;;;;5114640;28;20040;-60
2022/01/20 04:41:36;;;;;;;14.25;2.60;;;3.70;99.90;;;;;;5079389;28;20047;-61
2022/01/20 04:44:06;;;;;;;17.38;2.63;;;3.70;99.90;;;;;;5114485;28;20072;-61
2022/01/20 04:46:41;;;;;;;15.45;2.80;;;3.70;99.90;;;;;;5114779;28;20082;-61
2022/01/20 04:57:21;;;;;;;16.08;2.85;;;3.40;99.90;;;;;;5114273;28;20498;-60
2022/01/20 04:59:51;;;;;;;26.00;2.47;;;3.30;99.90;;;;;;5113974;28;20044;-61
2022/01/20 05:02:17;;;;;;;19.27;3.03;;;3.40;99.90;;;;;;5114405;28;20035;-61
2022/01/20 05:04:43;;;;;;;13.88;2.72;;;3.30;99.90;;;;;;5114105;28;20093;-60
2022/01/20 05:07:17;;;;;;;7.90;1.20;;;3.30;99.90;;;;;;5114038;28;20327;-61
2022/01/20 05:09:42;;;;;;;8.48;1.85;;;3.20;99.90;;;;;;5114254;28;20062;-60
2022/01/20 05:12:11;;;;;;;8.52;1.13;;;3.10;99.90;;;;;;5113813;28;20489;-59
2022/01/20 05:14:37;;;;;;;;;;;3.00;99.90;;;;;;5114151;28;20485;-60
2022/01/20 05:17:03;;;;;;;7.25;1.52;;;2.90;99.90;;;;;;5113699;28;19922;-60
2022/01/20 05:19:31;;;;;;;5.13;0.75;;;2.90;99.90;;;;;;5113995;28;20082;-60
2022/01/20 05:21:58;;;;;;;5.25;0.85;;;2.90;99.90;;;;;;5113450;28;20059;-60
2022/01/20 05:24:25;;;;;;;7.63;2.72;;;2.90;99.90;;;;;;5113736;28;20043;-60
2022/01/20 05:26:52;;;;;;;8.15;1.55;;;2.80;99.90;;;;;;5113494;28;20039;-60
2022/01/20 05:29:18;;;;;;;8.30;1.65;;;2.80;99.90;;;;;;5113465;28;20039;-59
2022/01/20 05:31:44;;;;;;;7.63;1.85;;;2.80;99.90;;;;;;5113647;28;20473;-59
2022/01/20 05:34:10;;;;;;;10.05;1.90;;;2.80;99.90;;;;;;5113669;28;20042;-59
2022/01/20 05:36:36;;;;;;;17.20;2.85;;;2.80;99.90;;;;;;5113519;28;20478;-60
2022/01/20 05:39:02;;;;;;;12.68;2.45;;;2.80;99.90;;;;;;5113233;28;20392;-59
2022/01/20 05:41:28;;;;;;;15.80;3.13;;;2.80;99.90;;;;;;5113006;28;20036;-60
2022/01/20 05:43:54;;;;;;;13.52;2.60;;;2.80;99.90;;;;;;5113203;28;20031;-59
2022/01/20 05:46:23;;;;;;;17.33;3.45;;;2.90;99.90;;;;;;5113378;28;20507;-59
2022/01/20 05:48:49;;;;;;;17.75;3.00;;;2.80;99.90;;;;;;5113272;28;20039;-60
2022/01/20 05:51:15;;;;;;;25.15;4.38;;;2.80;99.90;;;;;;5113181;28;20046;-59
2022/01/20 05:53:42;;;;;;;16.05;2.47;;;2.80;99.90;;;;;;5113296;28;20036;-59
2022/01/20 05:56:07;;;;;;;17.33;3.05;;;2.80;99.90;;;;;;5094968;28;20040;-60
2022/01/20 05:58:36;;;;;;;11.40;2.40;;;2.90;99.90;;;;;;5113111;28;20031;-59
2022/01/20 06:01:06;;;;;;;27.65;3.22;;;3.00;99.90;;;;;;5113078;28;20040;-59
2022/01/20 06:03:39;;;;;;;14.02;2.80;;;3.00;99.90;;;;;;5113044;28;20050;-59
2022/01/20 06:06:11;;;;;;;13.90;2.95;;;3.00;99.90;;;;;;5112966;28;20040;-60
2022/01/20 06:08:38;;;;;;;13.27;2.72;;;3.10;99.90;;;;;;5113464;28;20070;-60
2022/01/20 06:11:04;;;;;;;10.02;2.17;;;3.10;99.90;;;;;;5113221;28;20043;-60
2022/01/20 06:13:30;;;;;;;14.50;2.95;;;3.20;99.90;;;;;;5113151;28;20125;-60
2022/01/20 06:15:56;;;;;;;19.67;3.53;;;3.20;99.90;;;;;;5112970;28;20071;-59
2022/01/20 06:18:22;;;;;;;14.85;3.38;;;3.20;99.90;;;;;;5113094;28;20108;-61
2022/01/20 06:20:48;;;;;;;16.85;2.83;;;3.30;99.90;;;;;;5112711;28;20473;-60
2022/01/20 06:23:14;;;;;;;15.50;2.75;;;3.30;99.90;;;;;;5112400;28;20062;-60
2022/01/20 06:25:41;;;;;;;14.57;2.92;;;3.30;99.90;;;;;;5112718;28;20154;-60
2022/01/20 06:28:07;;;;;;;17.02;3.55;;;3.30;99.90;;;;;;5112699;28;20123;-60
2022/01/20 06:30:34;;;;;;;13.43;3.10;;;3.30;99.90;;;;;;5112582;28;20397;-60
2022/01/20 06:33:00;;;;;;;20.08;3.15;;;3.30;99.90;;;;;;5093642;28;20036;-60
2022/01/20 06:35:26;;;;;;;17.30;2.83;;;3.10;99.90;;;;;;5112558;28;20449;-60
2022/01/20 06:37:52;;;;;;;20.10;2.90;;;2.90;99.90;;;;;;5112569;28;20040;-60
2022/01/20 06:40:18;;;;;;;16.55;2.97;;;2.80;99.90;;;;;;5112667;28;20036;-60
2022/01/20 06:42:44;;;;;;;13.10;2.10;;;2.70;99.90;;;;;;5112392;28;20039;-59
2022/01/20 06:45:12;;;;;;;18.10;2.92;;;2.70;99.90;;;;;;5112672;28;20108;-59
2022/01/20 06:47:39;;;;;;;12.45;2.45;;;2.60;99.90;;;;;;5112299;28;20492;-60
2022/01/20 06:50:06;;;;;;;12.02;1.95;;;2.60;99.90;;;;;;5112140;28;20114;-60
2022/01/20 06:52:32;;;;;;;17.63;2.38;;;2.60;99.90;;;;;;5112088;28;20473;-60
2022/01/20 06:55:00;;;;;;;17.65;2.92;;;2.60;99.90;;;;;;5112572;28;20039;-59
2022/01/20 06:57:26;;;;;;;11.38;2.35;;;2.60;99.90;;;;;;5112299;28;20038;-59
2022/01/20 06:59:52;;;;;;;20.25;2.28;;;2.60;99.90;;;;;;5112264;28;20042;-59
2022/01/20 07:02:18;;;;;;;17.70;2.42;;;2.60;99.90;;;;;;5112536;28;20036;-60
2022/01/20 07:04:46;;;;;;;12.65;2.78;;;2.50;99.90;;;;;;5112238;28;20548;-60
2022/01/20 07:07:12;;;;;;;19.58;2.70;;;2.50;99.90;;;;;;5112538;28;20040;-60
2022/01/20 07:09:39;;;;;;;15.25;3.17;;;2.50;99.90;;;;;;5112565;28;20046;-59
2022/01/20 07:12:05;;;;;;;17.20;2.80;;;2.50;99.90;;;;;;5112282;28;20071;-60
2022/01/20 07:14:30;;;;;;;15.23;2.33;;;2.50;99.90;;;;;;5112256;28;20036;-60
2022/01/20 07:16:57;;;;;;;18.35;3.00;;;2.60;99.90;;;;;;5112389;28;20036;-61
2022/01/20 07:19:22;;;;;;;15.07;2.50;;;2.80;99.90;;;;;;5112292;28;20054;-60
2022/01/20 07:21:48;;;;;;;11.18;2.05;;;2.80;99.90;;;;;;5112119;28;20500;-60
2022/01/20 07:24:14;;;;;;;12.48;2.00;;;2.70;99.90;;;;;;5112537;28;20051;-60
2022/01/20 07:26:40;;;;;;;13.40;2.22;;;2.70;99.90;;;;;;5112694;28;20051;-60
2022/01/20 07:29:05;;;;;;;13.55;2.55;;;2.70;99.90;;;;;;5112738;28;20071;-60
2022/01/20 07:31:31;;;;;;;14.60;2.35;;;2.70;99.90;;;;;;5112126;28;20536;-61
2022/01/20 07:33:57;;;;;;;14.57;2.80;;;2.70;99.90;;;;;;5112059;28;20085;-60
2022/01/20 07:36:23;;;;;;;13.13;2.22;;;2.70;99.90;;;;;;5111951;28;20066;-60
2022/01/20 07:38:48;;;;;;;18.15;2.85;;;2.60;99.90;;;;;;5112484;28;20040;-60
2022/01/20 07:41:15;;;;;;;13.65;3.30;;;2.60;99.90;;;;;;5111947;28;20036;-61
2022/01/20 07:43:41;;;;;;;23.25;2.95;;;2.70;99.90;;;;;;5112014;28;20036;-60
2022/01/20 07:46:07;;;;;;;17.25;3.10;;;2.70;99.90;;;;;;5115041;28;20532;-60
2022/01/20 07:48:34;;;;;;;15.45;2.95;;;2.70;99.90;;;;;;5115830;28;20119;-60
2022/01/20 07:51:00;;;;;;;24.17;2.90;;;2.80;99.90;;;;;;5115193;28;20086;-63
2022/01/20 07:53:26;;;;;;;25.33;3.33;;;2.80;99.90;;;;;;5115118;28;20106;-63
2022/01/20 07:55:52;;;;;;;16.42;3.40;;;2.80;99.90;;;;;;5115013;28;20115;-62
2022/01/20 07:58:18;;;;;;;13.20;3.00;;;2.90;99.90;;;;;;5115003;28;20106;-63
2022/01/20 08:00:44;;;;;;;15.35;2.72;;;2.80;99.90;;;;;;5114818;28;20039;-63
2022/01/20 08:03:10;;;;;;;17.92;2.75;;;2.80;99.90;;;;;;5096568;28;20100;-63
2022/01/20 08:05:36;;;;;;;14.32;2.40;;;2.80;99.90;;;;;;5114938;28;20050;-64
2022/01/20 08:08:02;;;;;;;17.88;3.65;;;2.80;99.90;;;;;;5096754;28;20378;-64
2022/01/20 08:10:29;;;;;;;14.13;2.90;;;2.80;99.90;;;;;;5096182;28;20127;-64
2022/01/20 08:12:55;;;;;;;18.77;3.03;;;2.70;99.90;;;;;;5114792;28;20035;-62
2022/01/20 08:15:20;;;;;;;14.52;3.17;;;2.70;99.90;;;;;;5114408;28;20088;-62
2022/01/20 08:17:47;;;;;;;18.17;3.20;;;2.70;99.90;;;;;;5114667;28;20036;-62
2022/01/20 08:20:13;;;;;;;20.92;3.33;;;2.70;99.90;;;;;;5095698;28;20084;-63
2022/01/20 08:22:39;;;;;;;18.83;3.47;;;2.80;99.90;;;;;;5114556;28;20063;-62
2022/01/20 08:25:06;;;;;;;17.23;2.70;;;2.90;99.90;;;;;;5114674;28;20217;-63
2022/01/20 08:27:32;;;;;;;17.25;2.85;;;2.90;99.90;;;;;;5114642;28;20051;-63
2022/01/20 08:29:58;;;;;;;15.48;3.20;;;3.00;99.90;;;;;;5095857;28;20075;-63
2022/01/20 08:32:24;;;;;;;17.15;2.92;;;3.10;99.90;;;;;;5114055;28;20200;-62
2022/01/20 08:34:50;;;;;;;16.63;2.70;;;3.10;99.90;;;;;;5114316;28;20496;-62
2022/01/20 08:37:16;;;;;;;15.60;3.30;;;3.10;99.90;;;;;;5114121;28;20069;-63
2022/01/20 08:39:45;;;;;;;14.07;2.20;;;3.30;99.90;;;;;;5113995;28;20132;-63
2022/01/20 08:42:11;;;;;;;10.85;2.10;;;3.30;99.90;;;;;;5113795;28;20048;-63
2022/01/20 08:44:37;;;;;;;14.02;2.58;;;3.40;99.90;;;;;;5114111;28;20063;-63
2022/01/20 08:47:09;;;;;;;14.95;2.70;;;3.70;99.90;;;;;;5113889;28;20039;-64
2022/01/20 08:49:36;;;;;;;12.80;2.63;;;3.70;99.90;;;;;;5114289;28;20472;-65
2022/01/20 08:52:02;;;;;;;13.07;2.22;;;3.50;99.90;;;;;;5114225;28;20043;-64
2022/01/20 08:54:28;;;;;;;7.63;1.30;;;3.30;99.90;;;;;;5114108;28;20124;-62
2022/01/20 08:56:53;;;;;;;8.95;1.58;;;3.20;99.90;;;;;;5113270;28;20071;-62
2022/01/20 08:59:19;;;;;;;6.00;1.40;;;3.10;99.90;;;;;;5113610;28;20111;-62
2022/01/20 09:01:45;;;;;;;6.47;1.30;;;3.00;99.90;;;;;;5113592;28;20035;-61
2022/01/20 09:04:11;;;;;;;10.32;1.38;;;3.00;99.90;;;;;;5113519;28;20051;-63
2022/01/20 09:06:36;;;;;;;8.20;1.15;;;3.00;99.90;;;;;;5095209;28;20071;-63
2022/01/20 09:09:03;;;;;;;6.10;1.60;;;3.10;99.90;;;;;;5113278;28;20393;-63
2022/01/20 09:11:38;;;;;;;9.10;1.60;;;3.20;99.90;;;;;;5113419;28;20362;-62
2022/01/20 09:16:49;;;;;;;12.10;1.90;;;3.50;99.90;;;;;;5113296;28;20044;-63
2022/01/20 09:19:16;;;;;;;11.55;1.58;;;3.50;99.90;;;;;;5113432;28;20043;-62
2022/01/20 09:21:42;;;;;;;12.43;2.45;;;3.50;99.90;;;;;;5113314;28;20047;-62
2022/01/20 09:24:08;;;;;;;12.23;2.10;;;3.50;99.90;;;;;;5113037;28;20092;-63
2022/01/20 09:26:34;;;;;;;9.38;1.73;;;3.50;99.90;;;;;;5112978;28;20044;-62
2022/01/20 09:29:00;;;;;;;9.93;2.05;;;3.40;99.90;;;;;;5113072;28;20099;-62
2022/01/20 09:31:27;;;;;;;7.43;1.55;;;3.30;99.90;;;;;;5113232;28;20424;-63
2022/01/20 09:33:54;;;;;;;13.82;1.90;;;3.30;99.90;;;;;;5113044;28;20040;-62
2022/01/20 09:36:22;;;;;;;8.13;2.20;;;3.40;99.90;;;;;;5112816;28;20074;-61
2022/01/20 09:38:48;;;;;;;9.50;1.83;;;3.40;99.90;;;;;;5112969;28;20035;-62
2022/01/20 09:41:15;;;;;;;15.00;2.42;;;3.50;99.90;;;;;;5112765;28;20039;-62
2022/01/20 09:43:40;;;;;;;15.27;2.63;;;3.50;99.90;;;;;;5113228;28;20048;-62
2022/01/20 09:46:06;;;;;;;10.93;2.55;;;3.60;99.90;;;;;;5112832;28;20046;-61
2022/01/20 09:48:32;;;;;;;14.45;2.25;;;3.80;99.90;;;;;;5112625;28;20039;-62
2022/01/20 09:51:00;;;;;;;12.10;2.15;;;4.20;99.90;;;;;;5112574;28;20477;-61
2022/01/20 09:53:27;;;;;;;15.35;2.88;;;4.30;99.90;;;;;;5112667;28;20039;-64
2022/01/20 09:55:53;;;;;;;17.48;2.88;;;4.30;99.90;;;;;;5112582;28;20065;-62
2022/01/20 09:58:19;;;;;;;15.70;3.10;;;4.30;99.90;;;;;;5112532;28;20035;-62
2022/01/20 10:00:46;;;;;;;15.70;2.72;;;4.30;99.90;;;;;;5112676;28;20042;-62
2022/01/20 10:03:14;;;;;;;10.27;1.88;;;4.20;99.90;;;;;;5112359;28;20408;-62
2022/01/20 10:05:43;;;;;;;14.35;2.60;;;4.30;99.90;;;;;;5094206;28;20455;-62
2022/01/20 10:08:18;;;;;;;15.73;2.72;;;4.30;99.90;;;;;;5111523;28;20554;-62
2022/01/20 10:10:51;;;;;;;24.52;2.83;;;4.30;99.90;;;;;;5112297;28;20533;-62
2022/01/20 10:13:20;;;;;;;9.55;2.00;;;4.30;99.90;;;;;;5112273;28;20460;-62
2022/01/20 10:15:55;;;;;;;5.65;1.58;;;4.30;99.90;;;;;;5112418;28;20039;-62
2022/01/20 10:18:21;;;;;;;4.43;1.30;;;4.30;99.90;;;;;;5112178;28;20044;-63
2022/01/20 10:21:03;;;;;;;7.65;1.40;;;4.20;99.90;;;;;;5112169;28;20032;-63
2022/01/20 10:23:43;;;;;;;8.65;1.35;;;4.20;99.90;;;;;;5111884;28;20516;-63
2022/01/20 10:26:16;;;;;;;;;;;4.10;99.90;;;;;;5112644;28;20047;-63
2022/01/20 10:29:03;;;;;;;10.00;1.90;;;4.00;99.90;;;;;;5112131;28;19922;-63
2022/01/20 10:31:31;;;;;;;8.70;1.60;;;4.00;99.90;;;;;;5112064;28;20043;-63
2022/01/20 10:33:57;;;;;;;12.32;2.03;;;4.10;99.90;;;;;;5112260;28;20108;-62
2022/01/20 10:36:23;;;;;;;18.20;2.70;;;4.20;99.90;;;;;;5112056;28;20481;-63
2022/01/20 10:38:59;;;;;;;14.10;2.33;;;4.30;99.90;;;;;;5112174;28;20039;-62
2022/01/20 10:41:36;;;;;;;14.30;2.10;;;4.30;99.90;;;;;;5111674;28;20111;-63
2022/01/20 10:44:06;;;;;;;11.93;2.20;;;4.30;99.90;;;;;;5112547;28;20523;-63
2022/01/20 10:46:54;;;;;;;8.40;1.58;;;4.30;99.90;;;;;;5112136;28;20048;-63
2022/01/20 10:49:26;;;;;;;9.60;1.88;;;4.40;99.90;;;;;;5111769;28;20043;-63
2022/01/20 10:52:01;;;;;;;5.45;1.25;;;4.50;99.90;;;;;;5111825;28;20482;-63
2022/01/20 10:54:45;;;;;;;10.13;2.05;;;4.50;99.90;;;;;;5111875;28;20556;-63
2022/01/20 10:57:15;;;;;;;12.55;1.92;;;4.70;99.90;;;;;;5093923;28;20105;-63
2022/01/20 10:59:50;;;;;;;16.25;3.00;;;4.80;99.90;;;;;;5111778;28;20055;-63
2022/01/20 11:02:18;;;;;;;20.73;2.97;;;4.90;99.90;;;;;;5111820;28;20040;-63
2022/01/20 11:04:45;;;;;;;14.05;2.67;;;5.10;99.90;;;;;;5111871;28;20048;-61
2022/01/20 11:07:11;;;;;;;14.25;2.00;;;5.40;99.90;;;;;;5111811;28;20096;-61
2022/01/20 11:09:42;;;;;;;18.95;2.92;;;5.20;99.90;;;;;;5111423;28;20473;-63
2022/01/20 11:12:12;;;;;;;16.75;2.70;;;4.90;99.90;;;;;;5111613;28;20474;-61
2022/01/20 11:14:38;;;;;;;13.00;2.60;;;4.40;99.90;;;;;;5111869;28;20046;-61
2022/01/20 11:17:04;;;;;;;16.27;2.35;;;4.10;99.90;;;;;;5111662;28;20063;-61
2022/01/20 11:19:36;;;;;;;12.23;2.03;;;4.10;99.90;;;;;;5114002;28;20031;-61
2022/01/20 11:22:12;;;;;;;11.90;2.58;;;3.90;99.90;;;;;;5115415;28;20047;-61
2022/01/20 11:24:40;;;;;;;13.23;2.28;;;3.90;99.90;;;;;;5115926;28;20444;-61
2022/01/20 11:27:09;;;;;;;12.48;2.45;;;4.10;99.90;;;;;;5115495;28;20550;-62
2022/01/20 11:29:50;;;;;;;9.88;2.30;;;5.30;99.90;;;;;;5115271;28;20119;-62
2022/01/20 11:32:24;;;;;;;9.77;1.92;;;5.80;99.90;;;;;;5115607;28;20035;-62
2022/01/20 11:35:01;;;;;;;19.60;2.70;;;5.30;99.90;;;;;;5115383;28;20036;-62
2022/01/20 11:37:32;;;;;;;11.00;2.42;;;4.90;99.90;;;;;;5115324;28;20039;-62
2022/01/20 11:40:13;;;;;;;13.02;2.97;;;4.30;99.90;;;;;;5115188;28;20086;-63
2022/01/20 11:42:39;;;;;;;11.88;2.40;;;3.80;99.90;;;;;;5114981;28;20471;-63
2022/01/20 11:45:34;;;;;;;19.75;3.10;;;3.60;99.90;;;;;;5115006;28;20031;-62
2022/01/20 11:48:23;;;;;;;17.05;2.67;;;3.40;99.90;;;;;;5114680;28;20130;-62
2022/01/20 11:51:05;;;;;;;12.95;2.17;;;3.30;99.90;;;;;;5114829;28;20481;-62
2022/01/20 11:53:30;;;;;;;10.02;2.17;;;3.30;99.90;;;;;;5114706;28;20035;-62
2022/01/20 11:55:56;;;;;;;14.60;2.25;;;3.40;99.90;;;;;;5114928;28;20402;-63
2022/01/20 11:58:25;;;;;;;16.50;2.30;;;3.60;99.90;;;;;;5114662;28;20036;-63
2022/01/20 12:01:05;;;;;;;15.23;2.30;;;3.80;99.90;;;;;;5114731;28;20067;-63
2022/01/20 12:03:32;;;;;;;13.45;1.77;;;4.20;99.90;;;;;;5096451;28;20063;-63
2022/01/20 12:06:04;;;;;;;16.23;2.70;;;4.50;99.90;;;;;;5114911;28;20050;-63
2022/01/20 12:08:30;;;;;;;15.60;2.83;;;4.90;99.90;;;;;;5079298;28;20044;-63
2022/01/20 12:11:07;;;;;;;16.38;3.08;;;5.10;99.90;;;;;;5096476;28;20039;-63
2022/01/20 12:13:48;;;;;;;14.77;2.60;;;5.00;99.90;;;;;;5114822;28;20110;-63
2022/01/20 12:16:19;;;;;;;22.73;4.60;;;4.90;99.90;;;;;;5114212;28;20042;-61
2022/01/20 12:18:50;;;;;;;21.13;3.13;;;4.90;99.90;;;;;;5112982;28;20081;-63
2022/01/20 12:21:17;;;;;;;18.52;2.97;;;4.80;99.90;;;;;;5114687;28;20051;-62
2022/01/20 12:23:44;;;;;;;20.08;3.00;;;4.70;99.90;;;;;;5096006;28;20054;-62
2022/01/20 12:26:10;;;;;;;16.73;2.83;;;4.60;99.90;;;;;;5114581;28;20054;-62
2022/01/20 12:28:36;;;;;;;19.85;2.40;;;4.80;99.90;;;;;;5114568;28;20044;-62
2022/01/20 12:31:05;;;;;;;13.15;2.47;;;4.80;99.90;;;;;;5113500;28;20039;-61
2022/01/20 12:33:33;;;;;;;12.80;2.80;;;4.90;99.90;;;;;;5114211;28;20496;-62
2022/01/20 12:36:04;;;;;;;17.40;2.85;;;4.70;99.90;;;;;;5114378;28;20558;-62
2022/01/20 12:38:39;;;;;;;13.00;2.58;;;4.70;99.90;;;;;;5114632;28;20362;-62
2022/01/20 12:41:12;;;;;;;18.42;3.17;;;4.60;99.90;;;;;;5114227;28;20047;-63
2022/01/20 12:43:47;;;;;;;21.67;3.25;;;4.50;99.90;;;;;;5114035;27;20043;-62
2022/01/20 12:46:22;;;;;;;22.67;4.03;;;4.60;99.90;;;;;;5112871;28;20043;-62
2022/01/20 12:48:59;;;;;;;22.10;3.92;;;4.60;99.90;;;;;;5112084;28;20077;-62
2022/01/20 12:51:30;;;;;;;18.60;2.72;;;4.60;99.90;;;;;;5112602;28;20363;-62
2022/01/20 12:54:05;;;;;;;19.25;3.58;;;4.70;99.90;;;;;;5113733;28;20036;-63
2022/01/20 12:56:35;;;;;;;16.98;2.97;;;4.70;99.90;;;;;;5112593;28;20464;-63
2022/01/20 12:59:01;;;;;;;18.13;2.88;;;4.80;99.90;;;;;;5113624;27;20564;-63
2022/01/20 13:01:47;;;;;;;21.15;3.60;;;4.90;99.90;;;;;;5113821;28;20039;-63
2022/01/20 13:04:16;;;;;;;17.23;2.83;;;4.80;99.90;;;;;;5113776;28;20104;-63
2022/01/20 13:06:45;;;;;;;;;;;4.80;99.90;;;;;;5114066;28;20040;-62
2022/01/20 13:09:12;;;;;;;16.90;2.75;;;4.90;99.90;;;;;;5113415;28;20361;-63
2022/01/20 13:11:43;;;;;;;8.25;1.48;;;4.70;99.90;;;;;;5113547;28;20473;-63
2022/01/20 13:14:11;;;;;;;10.80;1.35;;;4.40;99.90;;;;;;5113442;28;20032;-62
2022/01/20 13:16:37;;;;;;;7.10;1.33;;;4.40;99.90;;;;;;5113752;28;20039;-61
2022/01/20 13:19:06;;;;;;;10.52;1.20;;;4.30;99.90;;;;;;5113538;27;20089;-62
2022/01/20 13:21:42;;;;;;;5.40;0.80;;;4.20;99.90;;;;;;5111831;28;20167;-62
2022/01/20 13:24:10;;;;;;;7.93;1.17;;;4.10;99.90;;;;;;5112920;28;20063;-62
2022/01/20 13:26:50;;;;;;;5.20;1.00;;;4.10;99.90;;;;;;5113614;28;20127;-63
2022/01/20 13:29:18;;;;;;;10.23;2.08;;;4.10;99.90;;;;;;5111755;28;20501;-63
2022/01/20 13:31:44;;;;;;;8.02;1.58;;;4.20;99.90;;;;;;5113232;28;20055;-63
2022/01/20 13:34:13;;;;;;;10.18;1.60;;;4.30;99.90;;;;;;5113083;28;20035;-63
2022/01/20 13:36:44;;;;;;;10.05;2.13;;;4.40;99.90;;;;;;5112936;28;20393;-62
2022/01/20 13:39:10;;;;;;;13.07;2.13;;;4.40;99.90;;;;;;5112958;28;20489;-63
2022/01/20 13:41:37;;;;;;;13.65;2.55;;;4.30;99.90;;;;;;5111322;28;20039;-63
2022/01/20 13:47:03;;;;;;;15.48;2.40;;;4.20;99.90;;;;;;5112867;28;20426;-62
2022/01/20 13:49:29;;;;;;;12.70;2.92;;;4.30;99.90;;;;;;5112979;28;20043;-62
2022/01/20 13:52:14;;;;;;;17.25;3.05;;;4.30;99.90;;;;;;5111269;28;20478;-63
2022/01/20 13:54:54;;;;;;;15.02;1.92;;;4.40;99.90;;;;;;5112822;28;20043;-63
2022/01/20 13:57:22;;;;;;;16.25;2.58;;;4.30;99.90;;;;;;5112577;28;20160;-63
2022/01/20 13:59:49;;;;;;;19.25;3.00;;;4.30;99.90;;;;;;5112901;28;20402;-63
2022/01/20 14:02:15;;;;;;;11.77;1.90;;;4.30;99.90;;;;;;5112808;28;20438;-62
2022/01/20 14:04:41;;;;;;;13.40;2.85;;;4.30;99.90;;;;;;5112444;28;20044;-63
2022/01/20 14:07:07;;;;;;;21.50;3.22;;;4.20;99.90;;;;;;5112450;28;20038;-63
2022/01/20 14:09:32;;;;;;;15.98;2.88;;;4.10;99.90;;;;;;5110268;28;20055;-63
2022/01/20 14:11:58;;;;;;;11.98;2.38;;;4.00;99.90;;;;;;5112292;28;20039;-62